sensor_id;sensor_type;location;lat;lon;timestamp;temperature;humidity
3492;DHT22;1760;52.480;13.422;2023-04-24T00:01:03;13.10;99.90
3492;DHT22;1760;52.480;13.422;2023-04-24T00:03:34;13.10;99.90
3492;DHT22;1760;52.480;13.422;2023-04-24T00:06:01;13.10;99.90
3492;DHT22;1760;52.480;13.422;2023-04-24T00:08:28;13.10;99.90
3492;DHT22;1760;52.480;13.422;2023-04-24T00:10:55;13.10;99.90
3492;DHT22;1760;52.480;13.422;2023-04-24T00:13:21;13.10;99.90
3492;DHT22;1760;52.480;13.422;2023-04-24T00:15:48;13.00;99.90
3492;DHT22;1760;52.480;13.422;2023-04-24T00:18:15;13.00;99.90
3492;DHT22;1760;52.480;13.422;2023-04-24T00:20:44;13.00;99.90
3492;DHT22;1760;52.480;13.422;2023-04-24T00:23:12;13.00;99.90
3492;DHT22;1760;52.480;13.422;2023-04-24T00:25:38;13.00;99.90
3492;DHT22;1760;52.480;13.422;2023-04-24T00:28:05;13.00;99.90
3492;DHT22;1760;52.480;13.422;2023-04-24T00:30:32;13.00;99.90
3492;DHT22;1760;52.480;13.422;2023-04-24T00:32:59;13.00;99.90
3492;DHT22;1760;52.480;13.422;2023-04-24T00:35:26;13.00;99.90
3492;DHT22;1760;52.480;13.422;2023-04-24T00:37:54;13.00;99.90
3492;DHT22;1760;52.480;13.422;2023-04-24T00:40:21;13.00;99.90
3492;DHT22;1760;52.480;13.422;2023-04-24T00:42:48;13.00;99.90
3492;DHT22;1760;52.480;13.422;2023-04-24T00:45:15;13.00;99.90
3492;DHT22;1760;52.480;13.422;2023-04-24T00:47:42;13.00;99.90
3492;DHT22;1760;52.480;13.422;2023-04-24T00:50:09;13.00;99.90
3492;DHT22;1760;52.480;13.422;2023-04-24T00:52:36;12.90;99.90
3492;DHT22;1760;52.480;13.422;2023-04-24T00:55:08;12.90;99.90
3492;DHT22;1760;52.480;13.422;2023-04-24T00:57:36;12.90;99.90
3492;DHT22;1760;52.480;13.422;2023-04-24T01:00:03;12.90;99.90
3492;DHT22;1760;52.480;13.422;2023-04-24T01:02:33;12.90;99.90
3492;DHT22;1760;52.480;13.422;2023-04-24T01:05:00;12.90;99.90
3492;DHT22;1760;52.480;13.422;2023-04-24T01:07:27;13.00;99.90
3492;DHT22;1760;52.480;13.422;2023-04-24T01:09:54;13.00;99.90
3492;DHT22;1760;52.480;13.422;2023-04-24T01:12:23;13.00;99.90
3492;DHT22;1760;52.480;13.422;2023-04-24T01:14:50;13.10;99.90
3492;DHT22;1760;52.480;13.422;2023-04-24T01:17:17;13.10;99.90
3492;DHT22;1760;52.480;13.422;2023-04-24T01:19:47;13.10;99.90
3492;DHT22;1760;52.480;13.422;2023-04-24T01:22:16;13.10;99.90
3492;DHT22;1760;52.480;13.422;2023-04-24T01:24:43;13.20;99.90
3492;DHT22;1760;52.480;13.422;2023-04-24T01:27:10;13.20;99.90
3492;DHT22;1760;52.480;13.422;2023-04-24T01:29:37;13.20;99.90
3492;DHT22;1760;52.480;13.422;2023-04-24T01:32:05;13.10;99.90
3492;DHT22;1760;52.480;13.422;2023-04-24T01:34:32;13.20;99.90
3492;DHT22;1760;52.480;13.422;2023-04-24T01:36:59;13.10;99.90
3492;DHT22;1760;52.480;13.422;2023-04-24T01:39:27;13.10;99.90
3492;DHT22;1760;52.480;13.422;2023-04-24T01:41:55;13.10;99.90
3492;DHT22;1760;52.480;13.422;2023-04-24T01:44:22;13.10;99.90
3492;DHT22;1760;52.480;13.422;2023-04-24T01:47:01;13.10;99.90
3492;DHT22;1760;52.480;13.422;2023-04-24T01:49:36;13.10;99.90
3492;DHT22;1760;52.480;13.422;2023-04-24T01:52:07;13.20;99.90
3492;DHT22;1760;52.480;13.422;2023-04-24T01:54:35;13.20;99.90
3492;DHT22;1760;52.480;13.422;2023-04-24T01:57:02;13.20;99.90
3492;DHT22;1760;52.480;13.422;2023-04-24T01:59:30;13.20;99.90
3492;DHT22;1760;52.480;13.422;2023-04-24T02:01:58;13.20;99.90
3492;DHT22;1760;52.480;13.422;2023-04-24T02:04:25;13.10;99.90
3492;DHT22;1760;52.480;13.422;2023-04-24T02:06:53;13.10;99.90
3492;DHT22;1760;52.480;13.422;2023-04-24T02:09:20;13.20;99.90
3492;DHT22;1760;52.480;13.422;2023-04-24T02:11:49;13.20;99.90
3492;DHT22;1760;52.480;13.422;2023-04-24T02:14:15;13.30;99.90
3492;DHT22;1760;52.480;13.422;2023-04-24T02:16:42;13.30;99.90
3492;DHT22;1760;52.480;13.422;2023-04-24T02:19:18;13.40;99.90
3492;DHT22;1760;52.480;13.422;2023-04-24T02:21:48;13.30;99.90
3492;DHT22;1760;52.480;13.422;2023-04-24T02:24:15;13.40;99.90
3492;DHT22;1760;52.480;13.422;2023-04-24T02:26:42;13.40;99.90
3492;DHT22;1760;52.480;13.422;2023-04-24T02:29:10;13.40;99.90
3492;DHT22;1760;52.480;13.422;2023-04-24T02:31:37;13.50;99.90
3492;DHT22;1760;52.480;13.422;2023-04-24T02:34:04;13.50;99.90
3492;DHT22;1760;52.480;13.422;2023-04-24T02:36:31;13.50;99.90
3492;DHT22;1760;52.480;13.422;2023-04-24T02:38:58;13.50;99.90
3492;DHT22;1760;52.480;13.422;2023-04-24T02:41:25;13.60;99.90
3492;DHT22;1760;52.480;13.422;2023-04-24T02:43:56;13.50;99.90
3492;DHT22;1760;52.480;13.422;2023-04-24T02:46:25;13.50;99.90
3492;DHT22;1760;52.480;13.422;2023-04-24T02:49:05;13.50;99.90
3492;DHT22;1760;52.480;13.422;2023-04-24T02:51:31;13.60;99.90
3492;DHT22;1760;52.480;13.422;2023-04-24T02:53:58;13.50;99.90
3492;DHT22;1760;52.480;13.422;2023-04-24T02:56:25;13.50;99.90
3492;DHT22;1760;52.480;13.422;2023-04-24T02:58:52;13.50;99.90
3492;DHT22;1760;52.480;13.422;2023-04-24T03:01:20;13.40;99.90
3492;DHT22;1760;52.480;13.422;2023-04-24T03:03:49;13.40;99.90
3492;DHT22;1760;52.480;13.422;2023-04-24T03:06:15;13.40;99.90
3492;DHT22;1760;52.480;13.422;2023-04-24T03:08:42;13.40;99.90
3492;DHT22;1760;52.480;13.422;2023-04-24T03:11:09;13.40;99.90
3492;DHT22;1760;52.480;13.422;2023-04-24T03:13:36;13.40;99.90
3492;DHT22;1760;52.480;13.422;2023-04-24T03:16:03;13.40;99.90
3492;DHT22;1760;52.480;13.422;2023-04-24T03:18:30;13.40;99.90
3492;DHT22;1760;52.480;13.422;2023-04-24T03:20:59;13.40;99.90
3492;DHT22;1760;52.480;13.422;2023-04-24T03:23:26;13.40;99.90
3492;DHT22;1760;52.480;13.422;2023-04-24T03:25:52;13.50;99.90
3492;DHT22;1760;52.480;13.422;2023-04-24T03:28:20;13.40;99.90
3492;DHT22;1760;52.480;13.422;2023-04-24T03:30:47;13.40;99.90
3492;DHT22;1760;52.480;13.422;2023-04-24T03:33:13;13.40;99.90
3492;DHT22;1760;52.480;13.422;2023-04-24T03:35:41;13.50;99.90
3492;DHT22;1760;52.480;13.422;2023-04-24T03:38:09;13.50;99.90
3492;DHT22;1760;52.480;13.422;2023-04-24T03:40:36;13.50;99.90
3492;DHT22;1760;52.480;13.422;2023-04-24T03:43:02;13.50;99.90
3492;DHT22;1760;52.480;13.422;2023-04-24T03:45:29;13.50;99.90
3492;DHT22;1760;52.480;13.422;2023-04-24T03:47:56;13.50;99.90
3492;DHT22;1760;52.480;13.422;2023-04-24T03:50:23;13.50;99.90
3492;DHT22;1760;52.480;13.422;2023-04-24T03:52:52;13.50;99.90
3492;DHT22;1760;52.480;13.422;2023-04-24T03:55:20;13.50;99.90
3492;DHT22;1760;52.480;13.422;2023-04-24T03:57:47;13.50;99.90
3492;DHT22;1760;52.480;13.422;2023-04-24T04:00:14;13.50;99.90
3492;DHT22;1760;52.480;13.422;2023-04-24T04:02:41;13.50;99.90
3492;DHT22;1760;52.480;13.422;2023-04-24T04:05:08;13.50;99.90
3492;DHT22;1760;52.480;13.422;2023-04-24T04:07:35;13.50;99.90
3492;DHT22;1760;52.480;13.422;2023-04-24T04:10:02;13.60;99.90
3492;DHT22;1760;52.480;13.422;2023-04-24T04:12:31;13.50;99.90
3492;DHT22;1760;52.480;13.422;2023-04-24T04:14:58;13.50;99.90
3492;DHT22;1760;52.480;13.422;2023-04-24T04:17:25;13.50;99.90
3492;DHT22;1760;52.480;13.422;2023-04-24T04:19:51;13.50;99.90
3492;DHT22;1760;52.480;13.422;2023-04-24T04:22:20;13.50;99.90
3492;DHT22;1760;52.480;13.422;2023-04-24T04:24:56;13.50;99.90
3492;DHT22;1760;52.480;13.422;2023-04-24T04:27:23;13.50;99.90
3492;DHT22;1760;52.480;13.422;2023-04-24T04:29:51;13.50;99.90
3492;DHT22;1760;52.480;13.422;2023-04-24T04:32:18;13.50;99.90
3492;DHT22;1760;52.480;13.422;2023-04-24T04:34:45;13.50;99.90
3492;DHT22;1760;52.480;13.422;2023-04-24T04:37:11;13.50;99.90
3492;DHT22;1760;52.480;13.422;2023-04-24T04:39:39;13.50;99.90
3492;DHT22;1760;52.480;13.422;2023-04-24T04:42:06;13.60;99.90
3492;DHT22;1760;52.480;13.422;2023-04-24T04:44:33;13.60;99.90
3492;DHT22;1760;52.480;13.422;2023-04-24T04:47:05;13.60;99.90
3492;DHT22;1760;52.480;13.422;2023-04-24T04:49:33;13.60;99.90
3492;DHT22;1760;52.480;13.422;2023-04-24T04:52:00;13.70;99.90
3492;DHT22;1760;52.480;13.422;2023-04-24T04:54:27;13.70;99.90
3492;DHT22;1760;52.480;13.422;2023-04-24T04:56:53;13.70;99.90
3492;DHT22;1760;52.480;13.422;2023-04-24T04:59:21;13.70;99.90
3492;DHT22;1760;52.480;13.422;2023-04-24T05:01:47;13.80;99.90
3492;DHT22;1760;52.480;13.422;2023-04-24T05:04:16;13.70;99.90
3492;DHT22;1760;52.480;13.422;2023-04-24T05:06:43;13.70;99.90
3492;DHT22;1760;52.480;13.422;2023-04-24T05:09:10;13.70;99.90
3492;DHT22;1760;52.480;13.422;2023-04-24T05:11:37;13.80;99.90
3492;DHT22;1760;52.480;13.422;2023-04-24T05:14:04;13.80;99.90
3492;DHT22;1760;52.480;13.422;2023-04-24T05:16:30;13.80;99.90
3492;DHT22;1760;52.480;13.422;2023-04-24T05:18:57;13.80;99.90
3492;DHT22;1760;52.480;13.422;2023-04-24T05:21:25;13.70;99.90
3492;DHT22;1760;52.480;13.422;2023-04-24T05:23:52;13.80;99.90
3492;DHT22;1760;52.480;13.422;2023-04-24T05:26:19;13.80;99.90
3492;DHT22;1760;52.480;13.422;2023-04-24T05:28:46;13.80;99.90
3492;DHT22;1760;52.480;13.422;2023-04-24T05:31:13;13.80;99.90
3492;DHT22;1760;52.480;13.422;2023-04-24T05:33:40;13.80;99.90
3492;DHT22;1760;52.480;13.422;2023-04-24T05:36:07;13.80;99.90
3492;DHT22;1760;52.480;13.422;2023-04-24T05:38:35;13.80;99.90
3492;DHT22;1760;52.480;13.422;2023-04-24T05:41:02;13.80;99.90
3492;DHT22;1760;52.480;13.422;2023-04-24T05:43:29;13.80;99.90
3492;DHT22;1760;52.480;13.422;2023-04-24T05:45:56;13.90;99.90
3492;DHT22;1760;52.480;13.422;2023-04-24T05:48:25;13.90;99.90
3492;DHT22;1760;52.480;13.422;2023-04-24T05:50:54;13.90;99.90
3492;DHT22;1760;52.480;13.422;2023-04-24T05:53:21;13.90;99.90
3492;DHT22;1760;52.480;13.422;2023-04-24T05:55:49;13.90;99.90
3492;DHT22;1760;52.480;13.422;2023-04-24T05:58:16;13.90;99.90
3492;DHT22;1760;52.480;13.422;2023-04-24T06:00:43;13.90;99.90
3492;DHT22;1760;52.480;13.422;2023-04-24T06:03:11;13.90;99.90
3492;DHT22;1760;52.480;13.422;2023-04-24T06:05:38;14.00;99.90
3492;DHT22;1760;52.480;13.422;2023-04-24T06:08:05;14.00;99.90
3492;DHT22;1760;52.480;13.422;2023-04-24T06:10:32;14.10;99.90
3492;DHT22;1760;52.480;13.422;2023-04-24T06:13:00;14.10;99.90
3492;DHT22;1760;52.480;13.422;2023-04-24T06:15:28;14.30;99.90
3492;DHT22;1760;52.480;13.422;2023-04-24T06:17:56;14.20;99.90
3492;DHT22;1760;52.480;13.422;2023-04-24T06:20:23;14.30;99.90
3492;DHT22;1760;52.480;13.422;2023-04-24T06:22:50;14.30;99.90
3492;DHT22;1760;52.480;13.422;2023-04-24T06:25:17;14.30;99.90
3492;DHT22;1760;52.480;13.422;2023-04-24T06:27:44;14.30;99.90
3492;DHT22;1760;52.480;13.422;2023-04-24T06:30:13;14.20;99.90
3492;DHT22;1760;52.480;13.422;2023-04-24T06:32:40;14.20;99.90
3492;DHT22;1760;52.480;13.422;2023-04-24T06:35:07;14.10;99.90
3492;DHT22;1760;52.480;13.422;2023-04-24T06:37:35;14.10;99.90
3492;DHT22;1760;52.480;13.422;2023-04-24T06:40:03;14.00;99.90
3492;DHT22;1760;52.480;13.422;2023-04-24T06:42:31;14.10;99.90
3492;DHT22;1760;52.480;13.422;2023-04-24T06:44:59;14.20;99.90
3492;DHT22;1760;52.480;13.422;2023-04-24T06:47:27;14.40;99.90
3492;DHT22;1760;52.480;13.422;2023-04-24T06:49:54;14.50;99.90
3492;DHT22;1760;52.480;13.422;2023-04-24T06:52:21;14.70;99.90
3492;DHT22;1760;52.480;13.422;2023-04-24T06:54:48;14.80;99.90
3492;DHT22;1760;52.480;13.422;2023-04-24T06:57:15;14.90;99.90
3492;DHT22;1760;52.480;13.422;2023-04-24T06:59:42;15.10;99.90
3492;DHT22;1760;52.480;13.422;2023-04-24T07:02:09;15.30;99.90
3492;DHT22;1760;52.480;13.422;2023-04-24T07:04:37;15.40;99.90
3492;DHT22;1760;52.480;13.422;2023-04-24T07:07:04;15.50;99.90
3492;DHT22;1760;52.480;13.422;2023-04-24T07:09:32;15.60;99.90
3492;DHT22;1760;52.480;13.422;2023-04-24T07:12:00;15.80;99.90
3492;DHT22;1760;52.480;13.422;2023-04-24T07:14:27;15.80;99.90
3492;DHT22;1760;52.480;13.422;2023-04-24T07:16:54;16.10;99.90
3492;DHT22;1760;52.480;13.422;2023-04-24T07:19:22;16.40;99.90
3492;DHT22;1760;52.480;13.422;2023-04-24T07:21:50;16.40;99.90
3492;DHT22;1760;52.480;13.422;2023-04-24T07:24:18;16.50;99.90
3492;DHT22;1760;52.480;13.422;2023-04-24T07:26:45;16.80;99.90
3492;DHT22;1760;52.480;13.422;2023-04-24T07:29:13;17.10;99.90
3492;DHT22;1760;52.480;13.422;2023-04-24T07:31:40;17.30;99.90
3492;DHT22;1760;52.480;13.422;2023-04-24T07:34:07;17.50;99.90
3492;DHT22;1760;52.480;13.422;2023-04-24T07:36:33;17.40;99.90
3492;DHT22;1760;52.480;13.422;2023-04-24T07:39:02;17.40;99.90
3492;DHT22;1760;52.480;13.422;2023-04-24T07:41:29;17.30;99.90
3492;DHT22;1760;52.480;13.422;2023-04-24T07:43:56;17.10;99.90
3492;DHT22;1760;52.480;13.422;2023-04-24T07:46:23;17.00;99.90
3492;DHT22;1760;52.480;13.422;2023-04-24T07:48:50;17.00;99.90
3492;DHT22;1760;52.480;13.422;2023-04-24T07:51:17;17.10;99.90
3492;DHT22;1760;52.480;13.422;2023-04-24T07:53:44;17.60;99.90
3492;DHT22;1760;52.480;13.422;2023-04-24T07:56:12;18.40;99.90
3492;DHT22;1760;52.480;13.422;2023-04-24T07:58:39;19.30;99.90
3492;DHT22;1760;52.480;13.422;2023-04-24T08:01:06;20.40;99.90
3492;DHT22;1760;52.480;13.422;2023-04-24T08:03:33;21.90;99.90
3492;DHT22;1760;52.480;13.422;2023-04-24T08:06:00;23.20;99.90
3492;DHT22;1760;52.480;13.422;2023-04-24T08:08:27;24.40;95.80
3492;DHT22;1760;52.480;13.422;2023-04-24T08:10:54;25.20;91.00
3492;DHT22;1760;52.480;13.422;2023-04-24T08:13:23;25.90;86.20
3492;DHT22;1760;52.480;13.422;2023-04-24T08:15:50;26.10;80.20
3492;DHT22;1760;52.480;13.422;2023-04-24T08:18:16;26.20;77.60
3492;DHT22;1760;52.480;13.422;2023-04-24T08:20:43;25.70;75.60
3492;DHT22;1760;52.480;13.422;2023-04-24T08:23:11;24.70;76.60
3492;DHT22;1760;52.480;13.422;2023-04-24T08:25:38;23.80;80.40
3492;DHT22;1760;52.480;13.422;2023-04-24T08:28:06;23.20;82.60
3492;DHT22;1760;52.480;13.422;2023-04-24T08:30:34;22.90;85.60
3492;DHT22;1760;52.480;13.422;2023-04-24T08:33:01;23.30;85.40
3492;DHT22;1760;52.480;13.422;2023-04-24T08:35:30;23.70;83.40
3492;DHT22;1760;52.480;13.422;2023-04-24T08:37:57;23.80;84.50
3492;DHT22;1760;52.480;13.422;2023-04-24T08:40:27;23.90;82.40
3492;DHT22;1760;52.480;13.422;2023-04-24T08:42:55;23.80;80.80
3492;DHT22;1760;52.480;13.422;2023-04-24T08:45:23;23.50;80.40
3492;DHT22;1760;52.480;13.422;2023-04-24T08:47:53;22.90;82.40
3492;DHT22;1760;52.480;13.422;2023-04-24T08:50:20;23.00;83.40
3492;DHT22;1760;52.480;13.422;2023-04-24T08:52:48;23.30;80.40
3492;DHT22;1760;52.480;13.422;2023-04-24T08:55:16;23.50;77.80
3492;DHT22;1760;52.480;13.422;2023-04-24T08:57:44;23.30;79.00
3492;DHT22;1760;52.480;13.422;2023-04-24T09:00:14;23.90;78.10
3492;DHT22;1760;52.480;13.422;2023-04-24T09:02:42;24.30;75.80
3492;DHT22;1760;52.480;13.422;2023-04-24T09:05:13;23.80;75.10
3492;DHT22;1760;52.480;13.422;2023-04-24T09:07:41;23.00;78.30
3492;DHT22;1760;52.480;13.422;2023-04-24T09:10:11;22.30;82.10
3492;DHT22;1760;52.480;13.422;2023-04-24T09:12:38;22.20;85.60
3492;DHT22;1760;52.480;13.422;2023-04-24T09:15:07;22.50;84.60
3492;DHT22;1760;52.480;13.422;2023-04-24T09:17:34;22.20;84.70
3492;DHT22;1760;52.480;13.422;2023-04-24T09:20:02;22.00;84.90
3492;DHT22;1760;52.480;13.422;2023-04-24T09:22:31;21.50;86.10
3492;DHT22;1760;52.480;13.422;2023-04-24T09:25:05;21.00;90.30
3492;DHT22;1760;52.480;13.422;2023-04-24T09:27:33;20.50;92.20
3492;DHT22;1760;52.480;13.422;2023-04-24T09:30:00;20.10;94.40
3492;DHT22;1760;52.480;13.422;2023-04-24T09:32:28;19.70;97.10
3492;DHT22;1760;52.480;13.422;2023-04-24T09:35:10;19.50;99.90
3492;DHT22;1760;52.480;13.422;2023-04-24T09:37:43;19.20;99.90
3492;DHT22;1760;52.480;13.422;2023-04-24T09:40:15;19.00;99.90
3492;DHT22;1760;52.480;13.422;2023-04-24T09:42:46;18.90;99.90
3492;DHT22;1760;52.480;13.422;2023-04-24T09:45:13;19.00;99.90
3492;DHT22;1760;52.480;13.422;2023-04-24T09:47:41;19.20;99.90
3492;DHT22;1760;52.480;13.422;2023-04-24T09:50:14;19.20;99.90
3492;DHT22;1760;52.480;13.422;2023-04-24T09:52:44;19.10;99.90
3492;DHT22;1760;52.480;13.422;2023-04-24T09:55:16;19.20;99.90
3492;DHT22;1760;52.480;13.422;2023-04-24T09:57:54;19.40;99.90
3492;DHT22;1760;52.480;13.422;2023-04-24T10:00:25;19.40;99.90
3492;DHT22;1760;52.480;13.422;2023-04-24T10:02:57;19.40;99.90
3492;DHT22;1760;52.480;13.422;2023-04-24T10:05:26;19.30;99.90
3492;DHT22;1760;52.480;13.422;2023-04-24T10:07:59;19.10;99.90
3492;DHT22;1760;52.480;13.422;2023-04-24T10:10:26;19.10;99.90
3492;DHT22;1760;52.480;13.422;2023-04-24T10:12:53;19.30;99.90
3492;DHT22;1760;52.480;13.422;2023-04-24T10:15:21;19.80;99.90
3492;DHT22;1760;52.480;13.422;2023-04-24T10:17:49;20.20;99.90
3492;DHT22;1760;52.480;13.422;2023-04-24T10:20:19;20.60;99.90
3492;DHT22;1760;52.480;13.422;2023-04-24T10:22:49;21.00;99.90
3492;DHT22;1760;52.480;13.422;2023-04-24T10:25:21;20.90;98.90
3492;DHT22;1760;52.480;13.422;2023-04-24T10:27:49;20.70;99.60
3492;DHT22;1760;52.480;13.422;2023-04-24T10:30:18;20.50;99.90
3492;DHT22;1760;52.480;13.422;2023-04-24T10:32:45;20.40;99.90
3492;DHT22;1760;52.480;13.422;2023-04-24T10:35:13;20.50;99.90
3492;DHT22;1760;52.480;13.422;2023-04-24T10:37:45;20.40;99.90
3492;DHT22;1760;52.480;13.422;2023-04-24T10:40:17;20.20;99.90
3492;DHT22;1760;52.480;13.422;2023-04-24T10:42:47;19.70;99.90
3492;DHT22;1760;52.480;13.422;2023-04-24T10:45:18;19.30;99.90
3492;DHT22;1760;52.480;13.422;2023-04-24T10:47:56;19.10;99.90
3492;DHT22;1760;52.480;13.422;2023-04-24T10:50:25;18.90;99.90
3492;DHT22;1760;52.480;13.422;2023-04-24T10:53:05;18.60;99.90
3492;DHT22;1760;52.480;13.422;2023-04-24T10:55:47;18.40;99.90
3492;DHT22;1760;52.480;13.422;2023-04-24T10:58:16;18.30;99.90
3492;DHT22;1760;52.480;13.422;2023-04-24T11:00:56;18.30;99.90
3492;DHT22;1760;52.480;13.422;2023-04-24T11:03:25;18.30;99.90
3492;DHT22;1760;52.480;13.422;2023-04-24T11:05:56;18.30;99.90
3492;DHT22;1760;52.480;13.422;2023-04-24T11:08:28;18.40;99.90
3492;DHT22;1760;52.480;13.422;2023-04-24T11:10:57;18.80;99.90
3492;DHT22;1760;52.480;13.422;2023-04-24T11:13:27;19.30;99.90
3492;DHT22;1760;52.480;13.422;2023-04-24T11:16:20;19.80;99.90
3492;DHT22;1760;52.480;13.422;2023-04-24T11:18:52;20.30;99.90
3492;DHT22;1760;52.480;13.422;2023-04-24T11:21:20;20.30;99.90
3492;DHT22;1760;52.480;13.422;2023-04-24T11:23:48;20.20;99.90
3492;DHT22;1760;52.480;13.422;2023-04-24T11:26:18;19.80;99.90
3492;DHT22;1760;52.480;13.422;2023-04-24T11:28:51;19.60;99.90
3492;DHT22;1760;52.480;13.422;2023-04-24T11:31:38;19.40;99.90
3492;DHT22;1760;52.480;13.422;2023-04-24T11:34:09;19.10;99.90
3492;DHT22;1760;52.480;13.422;2023-04-24T11:36:36;18.80;99.90
3492;DHT22;1760;52.480;13.422;2023-04-24T11:39:03;18.30;99.90
3492;DHT22;1760;52.480;13.422;2023-04-24T11:41:30;17.60;99.90
3492;DHT22;1760;52.480;13.422;2023-04-24T11:43:59;17.00;99.90
3492;DHT22;1760;52.480;13.422;2023-04-24T11:46:28;16.60;99.90
3492;DHT22;1760;52.480;13.422;2023-04-24T11:48:57;16.50;99.90
3492;DHT22;1760;52.480;13.422;2023-04-24T11:51:24;16.50;99.90
3492;DHT22;1760;52.480;13.422;2023-04-24T11:53:52;16.60;99.90
3492;DHT22;1760;52.480;13.422;2023-04-24T11:56:19;16.80;99.90
3492;DHT22;1760;52.480;13.422;2023-04-24T11:58:47;17.00;99.90
3492;DHT22;1760;52.480;13.422;2023-04-24T12:01:16;17.10;99.90
3492;DHT22;1760;52.480;13.422;2023-04-24T12:03:47;17.30;99.90
3492;DHT22;1760;52.480;13.422;2023-04-24T12:06:15;17.40;99.90
3492;DHT22;1760;52.480;13.422;2023-04-24T12:08:46;17.60;99.90
3492;DHT22;1760;52.480;13.422;2023-04-24T12:11:15;17.90;99.90
3492;DHT22;1760;52.480;13.422;2023-04-24T12:13:43;18.10;99.90
3492;DHT22;1760;52.480;13.422;2023-04-24T12:16:10;18.30;99.90
3492;DHT22;1760;52.480;13.422;2023-04-24T12:18:43;18.40;99.90
3492;DHT22;1760;52.480;13.422;2023-04-24T12:21:18;18.70;99.90
3492;DHT22;1760;52.480;13.422;2023-04-24T12:23:45;19.00;99.90
3492;DHT22;1760;52.480;13.422;2023-04-24T12:26:15;19.20;99.90
3492;DHT22;1760;52.480;13.422;2023-04-24T12:28:43;19.20;99.90
3492;DHT22;1760;52.480;13.422;2023-04-24T12:31:09;19.10;99.90
3492;DHT22;1760;52.480;13.422;2023-04-24T12:33:36;19.10;99.90
3492;DHT22;1760;52.480;13.422;2023-04-24T12:36:05;19.20;99.90
3492;DHT22;1760;52.480;13.422;2023-04-24T12:38:32;19.20;99.90
3492;DHT22;1760;52.480;13.422;2023-04-24T12:41:07;19.20;99.90
3492;DHT22;1760;52.480;13.422;2023-04-24T12:43:35;19.10;99.90
3492;DHT22;1760;52.480;13.422;2023-04-24T12:46:02;19.20;99.90
3492;DHT22;1760;52.480;13.422;2023-04-24T12:48:29;19.30;99.90
3492;DHT22;1760;52.480;13.422;2023-04-24T12:50:57;19.40;99.90
3492;DHT22;1760;52.480;13.422;2023-04-24T12:53:28;19.40;97.50
3492;DHT22;1760;52.480;13.422;2023-04-24T12:55:56;19.50;93.40
3492;DHT22;1760;52.480;13.422;2023-04-24T12:58:23;19.50;92.90
3492;DHT22;1760;52.480;13.422;2023-04-24T13:00:50;19.40;91.50
3492;DHT22;1760;52.480;13.422;2023-04-24T13:03:18;19.30;91.20
3492;DHT22;1760;52.480;13.422;2023-04-24T13:05:45;19.30;90.70
3492;DHT22;1760;52.480;13.422;2023-04-24T13:08:12;19.40;91.60
3492;DHT22;1760;52.480;13.422;2023-04-24T13:10:40;19.60;91.10
3492;DHT22;1760;52.480;13.422;2023-04-24T13:13:08;19.60;87.80
3492;DHT22;1760;52.480;13.422;2023-04-24T13:15:35;19.60;83.70
3492;DHT22;1760;52.480;13.422;2023-04-24T13:18:02;19.60;83.90
3492;DHT22;1760;52.480;13.422;2023-04-24T13:20:29;19.60;82.60
3492;DHT22;1760;52.480;13.422;2023-04-24T13:22:56;19.60;79.50
3492;DHT22;1760;52.480;13.422;2023-04-24T13:25:23;19.40;77.00
3492;DHT22;1760;52.480;13.422;2023-04-24T13:27:51;19.30;76.70
3492;DHT22;1760;52.480;13.422;2023-04-24T13:30:18;19.30;76.60
3492;DHT22;1760;52.480;13.422;2023-04-24T13:32:45;19.50;74.80
3492;DHT22;1760;52.480;13.422;2023-04-24T13:35:12;19.60;75.20
3492;DHT22;1760;52.480;13.422;2023-04-24T13:37:40;19.70;72.70
3492;DHT22;1760;52.480;13.422;2023-04-24T13:40:08;19.70;68.80
3492;DHT22;1760;52.480;13.422;2023-04-24T13:42:35;19.80;69.20
3492;DHT22;1760;52.480;13.422;2023-04-24T13:45:04;19.90;69.30
3492;DHT22;1760;52.480;13.422;2023-04-24T13:47:31;19.90;68.90
3492;DHT22;1760;52.480;13.422;2023-04-24T13:49:58;20.00;68.60
3492;DHT22;1760;52.480;13.422;2023-04-24T13:52:25;19.90;67.20
3492;DHT22;1760;52.480;13.422;2023-04-24T13:54:52;19.90;67.90
3492;DHT22;1760;52.480;13.422;2023-04-24T13:57:19;19.70;68.90
3492;DHT22;1760;52.480;13.422;2023-04-24T13:59:46;19.60;68.10
3492;DHT22;1760;52.480;13.422;2023-04-24T14:02:15;19.50;69.40
3492;DHT22;1760;52.480;13.422;2023-04-24T14:04:42;19.50;71.40
3492;DHT22;1760;52.480;13.422;2023-04-24T14:07:09;19.60;72.10
3492;DHT22;1760;52.480;13.422;2023-04-24T14:09:36;19.60;71.40
3492;DHT22;1760;52.480;13.422;2023-04-24T14:12:03;19.60;72.10
3492;DHT22;1760;52.480;13.422;2023-04-24T14:14:30;19.60;70.10
3492;DHT22;1760;52.480;13.422;2023-04-24T14:16:57;19.50;70.40
3492;DHT22;1760;52.480;13.422;2023-04-24T14:19:25;19.40;71.00
3492;DHT22;1760;52.480;13.422;2023-04-24T14:21:52;19.30;71.70
3492;DHT22;1760;52.480;13.422;2023-04-24T14:24:21;19.20;71.00
3492;DHT22;1760;52.480;13.422;2023-04-24T14:26:48;19.00;70.20
3492;DHT22;1760;52.480;13.422;2023-04-24T14:29:14;18.90;69.80
3492;DHT22;1760;52.480;13.422;2023-04-24T14:31:42;18.80;69.80
3492;DHT22;1760;52.480;13.422;2023-04-24T14:34:10;18.90;70.40
3492;DHT22;1760;52.480;13.422;2023-04-24T14:36:38;19.00;69.60
3492;DHT22;1760;52.480;13.422;2023-04-24T14:39:06;18.90;68.70
3492;DHT22;1760;52.480;13.422;2023-04-24T14:41:33;18.70;69.20
3492;DHT22;1760;52.480;13.422;2023-04-24T14:44:01;18.70;70.00
3492;DHT22;1760;52.480;13.422;2023-04-24T14:46:29;18.60;70.80
3492;DHT22;1760;52.480;13.422;2023-04-24T14:48:56;18.60;72.30
3492;DHT22;1760;52.480;13.422;2023-04-24T14:51:24;18.60;71.80
3492;DHT22;1760;52.480;13.422;2023-04-24T14:53:53;18.60;72.20
3492;DHT22;1760;52.480;13.422;2023-04-24T14:56:20;18.70;72.20
3492;DHT22;1760;52.480;13.422;2023-04-24T14:58:47;18.70;71.70
3492;DHT22;1760;52.480;13.422;2023-04-24T15:01:14;18.70;72.30
3492;DHT22;1760;52.480;13.422;2023-04-24T15:03:41;18.50;72.20
3492;DHT22;1760;52.480;13.422;2023-04-24T15:06:08;18.40;73.00
3492;DHT22;1760;52.480;13.422;2023-04-24T15:08:35;18.20;73.90
3492;DHT22;1760;52.480;13.422;2023-04-24T15:11:03;18.10;73.60
3492;DHT22;1760;52.480;13.422;2023-04-24T15:13:31;18.00;73.70
3492;DHT22;1760;52.480;13.422;2023-04-24T15:15:58;18.00;74.60
3492;DHT22;1760;52.480;13.422;2023-04-24T15:18:25;18.00;75.80
3492;DHT22;1760;52.480;13.422;2023-04-24T15:20:53;17.80;75.70
3492;DHT22;1760;52.480;13.422;2023-04-24T15:23:20;17.70;75.20
3492;DHT22;1760;52.480;13.422;2023-04-24T15:25:47;17.80;74.40
3492;DHT22;1760;52.480;13.422;2023-04-24T15:28:16;17.80;74.20
3492;DHT22;1760;52.480;13.422;2023-04-24T15:30:43;17.90;73.30
3492;DHT22;1760;52.480;13.422;2023-04-24T15:33:10;17.80;72.90
3492;DHT22;1760;52.480;13.422;2023-04-24T15:35:37;17.60;74.60
3492;DHT22;1760;52.480;13.422;2023-04-24T15:38:04;17.40;74.80
3492;DHT22;1760;52.480;13.422;2023-04-24T15:40:31;17.20;75.50
3492;DHT22;1760;52.480;13.422;2023-04-24T15:42:58;17.00;76.10
3492;DHT22;1760;52.480;13.422;2023-04-24T15:45:26;17.00;77.50
3492;DHT22;1760;52.480;13.422;2023-04-24T15:47:53;16.90;79.40
3492;DHT22;1760;52.480;13.422;2023-04-24T15:50:20;16.80;78.40